createdAt,value
2023-04-12T00:02:23.614Z,100319.13
2023-04-12T00:05:20.989Z,100308.44
2023-04-12T00:08:24.513Z,100309.22
2023-04-12T00:10:58.401Z,100294.50
2023-04-12T00:13:46.239Z,100282.56
2023-04-12T00:17:00.579Z,100281.00
2023-04-12T00:19:33.373Z,100268.31
2023-04-12T00:22:36.449Z,100268.31
2023-04-12T00:25:30.435Z,100261.19
2023-04-12T00:28:16.104Z,100250.00
2023-04-12T00:35:42.187Z,100230.97
2023-04-12T00:39:12.239Z,100214.72
2023-04-12T00:42:44.383Z,100206.34
2023-04-12T00:45:17.835Z,100188.81
2023-04-12T00:47:51.801Z,100193.59
2023-04-12T00:50:30.476Z,100186.50
2023-04-12T00:53:04.326Z,100174.56
2023-04-12T00:55:37.245Z,100168.22
2023-04-12T00:58:27.921Z,100163.91
2023-04-12T01:01:47.529Z,100149.94
2023-04-12T01:04:34.542Z,100142.03
2023-04-12T01:08:00.783Z,100134.47
2023-04-12T01:10:54.756Z,100118.19
2023-04-12T01:14:04.489Z,100120.22
2023-04-12T01:16:51.526Z,100115.41
2023-04-12T01:20:14.568Z,100099.13
2023-04-12T01:23:28.550Z,100082.09
2023-04-12T01:26:41.789Z,100074.50
2023-04-12T01:29:31.445Z,100056.22
2023-04-12T01:38:05.536Z,100030.06
2023-04-12T01:40:54.577Z,100030.81
2023-04-12T01:44:01.804Z,100024.47
2023-04-12T01:46:46.803Z,100018.16
2023-04-12T01:49:19.772Z,100004.66
2023-04-12T01:55:07.256Z,99999.09
2023-04-12T01:57:52.240Z,99996.75
2023-04-12T02:00:26.068Z,99985.59
2023-04-12T02:03:02.060Z,99970.88
2023-04-12T02:05:34.788Z,99962.50
2023-04-12T02:08:09.114Z,99960.97
2023-04-12T02:11:00.116Z,99944.22
2023-04-12T02:13:44.876Z,99943.44
2023-04-12T02:16:29.962Z,99934.31
2023-04-12T02:19:21.231Z,99925.19
2023-04-12T02:21:59.866Z,99922.88
2023-04-12T02:24:41.546Z,99900.56
2023-04-12T02:27:18.824Z,99894.97
2023-04-12T02:30:05.151Z,99887.09
2023-04-12T02:35:40.523Z,99880.75
2023-04-12T02:38:19.070Z,99875.16
2023-04-12T02:40:53.531Z,99872.09
2023-04-12T02:43:29.209Z,99856.91
2023-04-12T02:46:01.864Z,99849.78
2023-04-12T02:48:41.860Z,99852.56
2023-04-12T02:51:15.055Z,99841.94
2023-04-12T02:53:48.624Z,99831.53
2023-04-12T02:56:36.178Z,99822.41
2023-04-12T02:59:20.736Z,99821.59
2023-04-12T03:01:53.354Z,99818.06
2023-04-12T03:04:57.462Z,99799.81
2023-04-12T03:07:30.537Z,99782.28
2023-04-12T03:10:14.841Z,99776.69
2023-04-12T03:16:43.769Z,99756.91
2023-04-12T03:19:19.976Z,99772.88
2023-04-12T03:22:11.066Z,99744.22
2023-04-12T03:24:47.101Z,99746.25
2023-04-12T03:27:19.718Z,99753.84
2023-04-12T03:30:08.025Z,99741.91
2023-04-12T03:32:46.766Z,99741.16
2023-04-12T03:35:19.626Z,99734.06
2023-04-12T03:40:46.581Z,99725.69
2023-04-12T03:43:42.278Z,99728.50
2023-04-12T03:46:32.816Z,99710.97
2023-04-12T03:51:59.752Z,99695.50
2023-04-12T04:08:10.183Z,99672.16
2023-04-12T04:10:54.797Z,99670.63
2023-04-12T04:13:27.594Z,99669.09
2023-04-12T04:18:51.101Z,99669.09
2023-04-12T04:21:23.954Z,99659.19
2023-04-12T04:23:59.248Z,99646.00
2023-04-12T04:26:35.445Z,99642.47
2023-04-12T04:29:23.806Z,99635.38
2023-04-12T04:32:15.898Z,99641.69
2023-04-12T04:35:17.405Z,99629.78
2023-04-12T04:38:06.867Z,99631.03
2023-04-12T04:40:39.509Z,99620.41
2023-04-12T04:43:24.491Z,99612.78
2023-04-12T04:46:11.463Z,99616.81
2023-04-12T04:49:04.508Z,99614.03
2023-04-12T04:51:55.489Z,99618.09
2023-04-12T04:54:28.095Z,99612.53
2023-04-12T04:57:01.667Z,99606.19
2023-04-12T05:02:24.486Z,99600.59
2023-04-12T05:04:57.019Z,99602.63
2023-04-12T05:07:55.182Z,99609.47
2023-04-12T05:10:27.726Z,99601.09
2023-04-12T05:13:17.832Z,99593.97
2023-04-12T05:15:50.954Z,99588.41
2023-04-12T05:18:26.768Z,99588.41
2023-04-12T05:21:08.399Z,99586.91
2023-04-12T05:23:58.476Z,99579.81
2023-04-12T05:29:41.793Z,99585.38
2023-04-12T05:32:27.615Z,99578.25
2023-04-12T05:35:09.580Z,99577.50
2023-04-12T05:37:51.165Z,99572.69
2023-04-12T05:40:44.297Z,99564.81
2023-04-12T05:43:19.250Z,99567.09
2023-04-12T05:45:51.975Z,99567.84
2023-04-12T05:48:42.204Z,99563.81
2023-04-12T05:51:30.693Z,99566.88
2023-04-12T05:54:33.682Z,99556.72
2023-04-12T05:57:34.712Z,99563.59
2023-04-12T06:06:10.040Z,99580.13
2023-04-12T06:12:17.540Z,99560.59
2023-04-12T06:15:54.680Z,99558.59
2023-04-12T06:19:26.245Z,99554.03
2023-04-12T06:22:22.670Z,99547.94
2023-04-12T06:25:28.132Z,99558.59
2023-04-12T06:30:43.421Z,99558.59
2023-04-12T06:33:18.946Z,99545.16
2023-04-12T06:36:11.826Z,99533.19
2023-04-12T06:49:31.480Z,99529.09
2023-04-12T06:53:09.966Z,99524.75
2023-04-12T06:56:32.324Z,99520.44
2023-04-12T06:59:09.415Z,99520.44
2023-04-12T07:01:59.685Z,99531.34
2023-04-12T07:04:45.299Z,99533.13
2023-04-12T07:10:54.332Z,99521.19
2023-04-12T07:14:27.209Z,99514.06
2023-04-12T07:17:49.367Z,99528.25
2023-04-12T07:20:42.025Z,99532.09
2023-04-12T07:23:15.427Z,99528.25
2023-04-12T07:26:06.585Z,99523.66
2023-04-12T07:29:00.560Z,99537.91
2023-04-12T07:35:55.449Z,99542.94
2023-04-12T07:39:02.901Z,99544.97
2023-04-12T07:57:16.978Z,99520.47
2023-04-12T08:03:01.584Z,99523.22
2023-04-12T08:06:15.316Z,99539.75
2023-04-12T08:09:10.150Z,99533.13
2023-04-12T08:12:19.418Z,99534.13
2023-04-12T08:15:07.266Z,99539.19
2023-04-12T08:27:36.612Z,99552.41
2023-04-12T08:42:21.568Z,99551.84
2023-04-12T08:45:39.622Z,99545.50
2023-04-12T08:48:23.059Z,99543.97
2023-04-12T08:51:01.578Z,99549.56
2023-04-12T08:53:34.601Z,99538.38
2023-04-12T08:59:14.125Z,99520.56
2023-04-12T09:02:06.063Z,99531.75
2023-04-12T09:05:07.446Z,99524.88
2023-04-12T09:11:42.329Z,99529.72
2023-04-12T09:17:52.489Z,99514.19
2023-04-12T09:28:53.845Z,99514.47
2023-04-12T09:35:12.199Z,99514.75
2023-04-12T09:37:44.920Z,99509.91
2023-04-12T09:40:41.898Z,99522.63
2023-04-12T09:43:37.424Z,99518.28
2023-04-12T09:46:16.700Z,99509.91
2023-04-12T09:48:59.233Z,99514.00
2023-04-12T09:51:52.320Z,99511.19
2023-04-12T09:54:24.927Z,99502.81
2023-04-12T09:57:24.467Z,99496.69
2023-04-12T10:03:20.549Z,99501.75
2023-04-12T10:06:29.146Z,99484.22
2023-04-12T10:09:20.707Z,99470.97
2023-04-12T10:17:53.627Z,99499.25
2023-04-12T10:20:29.701Z,99501.25
2023-04-12T10:23:20.368Z,99494.16
2023-04-12T10:25:55.680Z,99498.22
2023-04-12T10:35:14.556Z,99496.22
2023-04-12T10:38:04.581Z,99496.75
2023-04-12T10:40:38.568Z,99495.75
2023-04-12T10:43:37.240Z,99496.78
2023-04-12T10:46:37.913Z,99494.25
2023-04-12T10:49:11.999Z,99501.66
2023-04-12T10:52:15.575Z,99504.22
2023-04-12T10:54:48.514Z,99514.41
2023-04-12T10:57:54.640Z,99520.50
2023-04-12T11:00:55.847Z,99529.19
2023-04-12T11:04:17.038Z,99531.19
2023-04-12T11:06:52.838Z,99529.44
2023-04-12T11:09:41.036Z,99527.91
2023-04-12T11:12:29.347Z,99534.03
2023-04-12T11:15:03.781Z,99540.13
2023-04-12T11:17:37.956Z,99531.50
2023-04-12T11:20:27.888Z,99545.22
2023-04-12T11:23:00.868Z,99546.53
2023-04-12T11:28:29.003Z,99540.69
2023-04-12T11:33:52.147Z,99544.72
2023-04-12T11:36:35.308Z,99551.38
2023-04-12T11:39:09.130Z,99547.03
2023-04-12T11:42:08.672Z,99549.06
2023-04-12T11:44:59.799Z,99542.72
2023-04-12T11:47:47.326Z,99544.53
2023-04-12T11:50:30.918Z,99532.59
2023-04-12T11:53:13.327Z,99528.25
2023-04-12T11:58:42.252Z,99524.41
2023-04-12T12:01:16.254Z,99530.25
2023-04-12T12:04:00.833Z,99537.38
2023-04-12T12:06:50.022Z,99541.69
2023-04-12T12:09:24.588Z,99530.50
2023-04-12T12:12:16.167Z,99536.09
2023-04-12T12:14:48.803Z,99536.88
2023-04-12T12:20:49.298Z,99532.78
2023-04-12T12:23:36.070Z,99538.38
2023-04-12T12:26:17.725Z,99576.78
2023-04-12T12:28:53.123Z,99587.72
2023-04-12T12:31:47.567Z,99586.72
2023-04-12T12:34:20.138Z,99603.25
2023-04-12T12:36:58.532Z,99599.44
2023-04-12T12:39:39.492Z,99591.56
2023-04-12T12:42:15.157Z,99582.16
2023-04-12T12:45:07.152Z,99585.97
2023-04-12T12:47:59.812Z,99578.88
2023-04-12T12:50:38.395Z,99569.19
2023-04-12T12:53:11.530Z,99569.44
2023-04-12T12:55:56.546Z,99564.59
2023-04-12T12:58:45.426Z,99561.31
2023-04-12T13:01:17.844Z,99564.09
2023-04-12T13:03:50.749Z,99565.63
2023-04-12T13:06:32.088Z,99565.63
2023-04-12T13:09:21.011Z,99562.59
2023-04-12T13:11:57.842Z,99559.00
2023-04-12T13:14:30.818Z,99563.84
2023-04-12T13:17:06.580Z,99569.19
2023-04-12T13:19:39.352Z,99564.13
2023-04-12T13:22:33.768Z,99574.53
2023-04-12T13:25:07.207Z,99589.53
2023-04-12T13:27:39.687Z,99606.31
2023-04-12T13:30:12.664Z,99608.84
2023-04-12T13:33:07.139Z,99626.88
2023-04-12T13:35:39.992Z,99619.50
2023-04-12T13:38:21.717Z,99616.47
2023-04-12T13:40:55.979Z,99573.53
2023-04-12T13:43:41.061Z,99577.34
2023-04-12T13:46:13.916Z,99576.31
2023-04-12T13:48:49.978Z,99567.72
2023-04-12T13:51:24.146Z,99576.84
2023-04-12T13:53:57.970Z,99565.16
2023-04-12T13:56:30.956Z,99554.47
2023-04-12T13:59:08.417Z,99556.50
2023-04-12T14:01:42.059Z,99570.19
2023-04-12T14:04:24.019Z,99557.50
2023-04-12T14:06:59.746Z,99566.66
2023-04-12T14:09:34.115Z,99557.50
2023-04-12T14:12:06.720Z,99551.13
2023-04-12T14:14:42.506Z,99556.16
2023-04-12T14:20:06.933Z,99541.38
2023-04-12T14:22:39.574Z,99549.75
2023-04-12T14:25:21.505Z,99557.34
2023-04-12T14:27:54.304Z,99552.25
2023-04-12T14:30:27.893Z,99554.25
2023-04-12T14:33:09.547Z,99556.03
2023-04-12T14:35:42.263Z,99571.03
2023-04-12T14:38:16.168Z,99582.97
2023-04-12T14:40:51.585Z,99592.91
2023-04-12T14:43:26.053Z,99602.56
2023-04-12T14:46:06.381Z,99620.09
2023-04-12T14:48:39.169Z,99636.88
2023-04-12T14:54:04.934Z,99633.09
2023-04-12T15:02:20.952Z,99612.50
2023-04-12T15:05:04.068Z,99601.31
2023-04-12T15:07:37.602Z,99593.41
2023-04-12T15:10:10.833Z,99594.19
2023-04-12T15:12:43.491Z,99587.81
2023-04-12T15:15:16.061Z,99593.41
2023-04-12T15:17:48.641Z,99604.59
2023-04-12T15:20:21.080Z,99605.91
2023-04-12T15:22:56.576Z,99596.75
2023-04-12T15:25:33.010Z,99595.97
2023-04-12T15:28:05.675Z,99595.72
2023-04-12T15:30:47.268Z,99592.16
2023-04-12T15:35:44.228Z,99593.47
2023-04-12T15:37:14.736Z,99585.81
2023-04-12T15:40:10.527Z,99570.31
2023-04-12T15:42:53.033Z,99570.84
2023-04-12T15:48:27.665Z,99586.88
2023-04-12T15:51:15.770Z,99585.56
2023-04-12T15:53:57.673Z,99569.03
2023-04-12T15:56:43.252Z,99567.75
2023-04-12T15:59:30.939Z,99554.53
2023-04-12T16:02:06.714Z,99556.81
2023-04-12T16:04:40.500Z,99545.63
2023-04-12T16:07:26.336Z,99536.97
2023-04-12T16:10:03.447Z,99546.66
2023-04-12T16:12:42.235Z,99545.13
2023-04-12T16:15:21.116Z,99543.63
2023-04-12T16:18:09.223Z,99553.28
2023-04-12T16:20:42.005Z,99550.25
2023-04-12T16:23:16.674Z,99548.47
2023-04-12T16:25:49.142Z,99545.44
2023-04-12T16:28:34.004Z,99545.19
2023-04-12T16:31:06.901Z,99549.78
2023-04-12T16:33:39.457Z,99551.81
2023-04-12T16:36:11.974Z,99549.53
2023-04-12T16:38:59.174Z,99541.66
2023-04-12T16:41:40.956Z,99543.69
2023-04-12T16:44:20.140Z,99544.22
2023-04-12T16:47:18.593Z,99541.41
2023-04-12T16:52:38.214Z,99542.69
2023-04-12T16:55:11.501Z,99538.38
2023-04-12T16:57:46.010Z,99535.59
2023-04-12T17:00:30.710Z,99543.72
2023-04-12T17:03:03.501Z,99535.09
2023-04-12T17:05:36.591Z,99532.03
2023-04-12T17:08:09.958Z,99525.69
2023-04-12T17:10:42.765Z,99522.13
2023-04-12T17:13:21.912Z,99523.41
2023-04-12T17:15:54.517Z,99530.25
2023-04-12T17:18:27.497Z,99526.72
2023-04-12T17:21:00.250Z,99524.41
2023-04-12T17:23:34.071Z,99525.72
2023-04-12T17:26:08.427Z,99521.41
2023-04-12T17:28:41.791Z,99517.56
2023-04-12T17:34:06.698Z,99516.06
2023-04-12T17:36:39.954Z,99520.66
2023-04-12T17:39:12.731Z,99517.88
2023-04-12T17:41:49.152Z,99527.50
2023-04-12T17:44:21.565Z,99521.66
2023-04-12T17:46:54.523Z,99516.06
2023-04-12T17:49:27.047Z,99525.75
2023-04-12T17:52:13.652Z,99525.50
2023-04-12T17:54:46.753Z,99512.78
2023-04-12T17:57:23.863Z,99515.59
2023-04-12T17:59:56.512Z,99515.34
2023-04-12T18:02:29.403Z,99516.59
2023-04-12T18:05:02.528Z,99505.91
2023-04-12T18:07:35.785Z,99505.16
2023-04-12T18:10:12.939Z,99514.06
2023-04-12T18:12:45.794Z,99520.19
2023-04-12T18:15:18.838Z,99507.47
2023-04-12T18:17:51.402Z,99512.81
2023-04-12T18:20:24.052Z,99511.28
2023-04-12T18:22:57.174Z,99513.84
2023-04-12T18:25:29.857Z,99512.31
2023-04-12T18:28:03.093Z,99521.72
2023-04-12T18:30:35.844Z,99507.75
2023-04-12T18:33:08.604Z,99516.63
2023-04-12T18:35:43.050Z,99521.47
2023-04-12T18:38:17.794Z,99518.44
2023-04-12T18:40:51.207Z,99511.31
2023-04-12T18:43:23.804Z,99520.97
2023-04-12T18:45:56.703Z,99523.00
2023-04-12T18:48:30.903Z,99517.91
2023-04-12T18:51:04.489Z,99512.88
2023-04-12T18:53:37.150Z,99514.88
2023-04-12T18:56:24.572Z,99519.72
2023-04-12T18:58:57.223Z,99517.94
2023-04-12T19:01:32.242Z,99515.91
2023-04-12T19:04:05.969Z,99519.97
2023-04-12T19:06:49.547Z,99524.03
2023-04-12T19:09:36.623Z,99536.47
2023-04-12T19:12:09.255Z,99527.34
2023-04-12T19:14:51.318Z,99521.00
2023-04-12T19:17:36.810Z,99525.06
2023-04-12T19:20:10.940Z,99528.38
2023-04-12T19:22:44.018Z,99531.91
2023-04-12T19:25:19.521Z,99533.22
2023-04-12T19:27:52.454Z,99528.88
2023-04-12T19:30:26.128Z,99529.38
2023-04-12T19:32:59.282Z,99532.69
2023-04-12T19:35:38.685Z,99524.81
2023-04-12T19:38:18.351Z,99529.66
2023-04-12T19:40:51.384Z,99522.53
2023-04-12T19:43:26.648Z,99519.47
2023-04-12T19:46:05.192Z,99531.94
2023-04-12T19:48:46.664Z,99522.03
2023-04-12T19:51:25.601Z,99514.94
2023-04-12T19:54:01.086Z,99508.59
2023-04-12T19:56:33.938Z,99501.22
2023-04-12T20:01:56.265Z,99504.78
2023-04-12T20:04:28.949Z,99500.47
2023-04-12T20:07:02.652Z,99502.50
2023-04-12T20:09:35.957Z,99494.63
2023-04-12T20:12:09.798Z,99481.94
2023-04-12T20:14:43.535Z,99486.00
2023-04-12T20:17:17.318Z,99484.47
2023-04-12T20:19:49.948Z,99489.31
2023-04-12T20:22:22.377Z,99487.78
2023-04-12T20:24:58.394Z,99485.47
2023-04-12T20:27:32.361Z,99483.22
2023-04-12T20:30:11.421Z,99486.50
2023-04-12T20:33:06.878Z,99476.59
2023-04-12T20:36:01.873Z,99471.53
2023-04-12T20:38:46.806Z,99476.38
2023-04-12T20:41:19.958Z,99470.78
2023-04-12T20:44:08.014Z,99463.41
2023-04-12T20:46:42.228Z,99447.94
2023-04-12T20:49:36.199Z,99450.75
2023-04-12T20:54:58.677Z,99439.03
2023-04-12T20:57:55.756Z,99427.38
2023-04-12T21:00:29.714Z,99423.56
2023-04-12T21:03:20.187Z,99426.59
2023-04-12T21:06:25.364Z,99408.84
2023-04-12T21:08:58.320Z,99420.50
2023-04-12T21:11:43.688Z,99419.47
2023-04-12T21:14:38.502Z,99407.28
2023-04-12T21:17:11.083Z,99408.53
2023-04-12T21:25:57.738Z,99401.38
2023-04-12T21:28:30.745Z,99394.78
2023-04-12T21:31:29.227Z,99387.41
2023-04-12T21:34:17.422Z,99387.13
2023-04-12T21:37:13.291Z,99376.97
2023-04-12T21:39:49.181Z,99373.63
2023-04-12T21:42:45.279Z,99373.88
2023-04-12T21:45:17.834Z,99360.94
2023-04-12T21:48:14.567Z,99359.66
2023-04-12T21:51:08.465Z,99363.94
2023-04-12T21:56:55.293Z,99355.06
2023-04-12T21:59:41.919Z,99354.31
2023-04-12T22:02:34.639Z,99348.72
2023-04-12T22:08:09.201Z,99352.00
2023-04-12T22:11:04.303Z,99347.97
2023-04-12T22:13:35.312Z,99326.34
2023-04-12T22:16:34.190Z,99320.78
2023-04-12T22:19:07.526Z,99315.19
2023-04-12T22:22:04.468Z,99309.59
2023-04-12T22:27:40.486Z,99298.16
2023-04-12T22:30:37.901Z,99306.56
2023-04-12T22:33:29.186Z,99293.88
2023-04-12T22:36:19.955Z,99291.06
2023-04-12T22:38:54.479Z,99279.66
2023-04-12T22:44:43.219Z,99272.53
2023-04-12T22:47:53.364Z,99271.03
2023-04-12T22:50:26.456Z,99271.03
2023-04-12T22:53:00.074Z,99269.25
2023-04-12T22:56:00.125Z,99264.22
2023-04-12T22:58:34.125Z,99266.22
2023-04-12T23:01:21.603Z,99266.75
2023-04-12T23:03:54.615Z,99265.97
2023-04-12T23:06:44.081Z,99262.94
2023-04-12T23:09:28.673Z,99260.69
2023-04-12T23:12:12.702Z,99259.16
2023-04-12T23:14:45.694Z,99259.69
2023-04-12T23:17:43.822Z,99249.78
2023-04-12T23:20:17.196Z,99257.91
2023-04-12T23:23:10.039Z,99251.56
2023-04-12T23:25:42.969Z,99257.66
2023-04-12T23:28:32.812Z,99257.44
2023-04-12T23:31:07.230Z,99252.88
2023-04-12T23:40:06.859Z,99252.41
2023-04-12T23:42:39.516Z,99245.31
2023-04-12T23:45:24.952Z,99231.09
2023-04-12T23:48:01.113Z,99226.78
2023-04-12T23:50:58.742Z,99226.53
